sensor_id;sensor_type;location;lat;lon;timestamp;temperature;humidity
42187;DHT22;27858;51.414;0.018;2023-05-16T04:02:30;8.60;99.90
42187;DHT22;27858;51.414;0.018;2023-05-16T04:04:57;8.50;99.90
42187;DHT22;27858;51.414;0.018;2023-05-16T04:07:24;8.50;99.90
42187;DHT22;27858;51.414;0.018;2023-05-16T04:09:51;8.60;99.90
42187;DHT22;27858;51.414;0.018;2023-05-16T04:12:17;8.50;99.90
42187;DHT22;27858;51.414;0.018;2023-05-16T04:14:44;8.50;99.90
42187;DHT22;27858;51.414;0.018;2023-05-16T04:17:11;8.50;99.90
42187;DHT22;27858;51.414;0.018;2023-05-16T04:19:38;8.50;99.90
42187;DHT22;27858;51.414;0.018;2023-05-16T04:22:05;8.40;99.90
42187;DHT22;27858;51.414;0.018;2023-05-16T04:24:32;8.40;99.90
42187;DHT22;27858;51.414;0.018;2023-05-16T04:26:58;8.40;99.90
42187;DHT22;27858;51.414;0.018;2023-05-16T04:29:28;8.40;99.90
42187;DHT22;27858;51.414;0.018;2023-05-16T04:31:55;8.40;99.90
42187;DHT22;27858;51.414;0.018;2023-05-16T04:34:22;8.30;99.90
42187;DHT22;27858;51.414;0.018;2023-05-16T04:36:53;8.30;99.90
42187;DHT22;27858;51.414;0.018;2023-05-16T04:39:21;8.30;99.90
42187;DHT22;27858;51.414;0.018;2023-05-16T04:41:47;8.30;99.90
42187;DHT22;27858;51.414;0.018;2023-05-16T04:44:14;8.30;99.90
42187;DHT22;27858;51.414;0.018;2023-05-16T04:46:41;8.30;99.90
42187;DHT22;27858;51.414;0.018;2023-05-16T04:49:08;8.30;99.90
42187;DHT22;27858;51.414;0.018;2023-05-16T04:51:36;8.30;99.90
42187;DHT22;27858;51.414;0.018;2023-05-16T04:54:03;8.30;99.90
42187;DHT22;27858;51.414;0.018;2023-05-16T04:56:30;8.30;99.90
42187;DHT22;27858;51.414;0.018;2023-05-16T04:58:57;8.20;99.90
42187;DHT22;27858;51.414;0.018;2023-05-16T05:01:24;8.20;99.90
42187;DHT22;27858;51.414;0.018;2023-05-16T05:03:50;8.20;99.90
42187;DHT22;27858;51.414;0.018;2023-05-16T05:06:17;8.30;99.90
42187;DHT22;27858;51.414;0.018;2023-05-16T05:08:44;8.30;99.90
42187;DHT22;27858;51.414;0.018;2023-05-16T05:11:11;8.30;99.90
42187;DHT22;27858;51.414;0.018;2023-05-16T05:13:37;8.30;99.90
42187;DHT22;27858;51.414;0.018;2023-05-16T05:16:04;8.20;99.90
42187;DHT22;27858;51.414;0.018;2023-05-16T05:18:31;8.30;99.90
42187;DHT22;27858;51.414;0.018;2023-05-16T05:20:58;8.30;99.90
42187;DHT22;27858;51.414;0.018;2023-05-16T05:23:25;8.30;99.90
42187;DHT22;27858;51.414;0.018;2023-05-16T05:25:52;8.40;99.90
42187;DHT22;27858;51.414;0.018;2023-05-16T05:28:19;8.40;99.90
42187;DHT22;27858;51.414;0.018;2023-05-16T05:30:46;8.40;99.90
42187;DHT22;27858;51.414;0.018;2023-05-16T05:33:16;8.40;99.90
42187;DHT22;27858;51.414;0.018;2023-05-16T05:35:44;8.50;99.90
42187;DHT22;27858;51.414;0.018;2023-05-16T05:38:11;8.50;99.90
42187;DHT22;27858;51.414;0.018;2023-05-16T05:40:37;8.50;99.90
42187;DHT22;27858;51.414;0.018;2023-05-16T05:43:04;8.50;99.90
42187;DHT22;27858;51.414;0.018;2023-05-16T05:45:31;8.60;99.90
42187;DHT22;27858;51.414;0.018;2023-05-16T05:47:58;8.70;99.90
42187;DHT22;27858;51.414;0.018;2023-05-16T05:50:25;8.70;99.90
42187;DHT22;27858;51.414;0.018;2023-05-16T05:52:52;8.70;99.90
42187;DHT22;27858;51.414;0.018;2023-05-16T05:55:19;8.80;99.90
42187;DHT22;27858;51.414;0.018;2023-05-16T05:57:46;8.90;99.90
42187;DHT22;27858;51.414;0.018;2023-05-16T06:00:14;8.90;99.90
42187;DHT22;27858;51.414;0.018;2023-05-16T06:02:41;9.00;99.90
42187;DHT22;27858;51.414;0.018;2023-05-16T06:05:08;9.00;99.90
42187;DHT22;27858;51.414;0.018;2023-05-16T06:07:35;9.10;99.90
42187;DHT22;27858;51.414;0.018;2023-05-16T06:10:02;9.20;99.90
42187;DHT22;27858;51.414;0.018;2023-05-16T06:12:31;9.30;99.90
42187;DHT22;27858;51.414;0.018;2023-05-16T06:14:57;9.40;99.90
42187;DHT22;27858;51.414;0.018;2023-05-16T06:17:24;9.50;99.90
42187;DHT22;27858;51.414;0.018;2023-05-16T06:19:51;9.50;99.90
42187;DHT22;27858;51.414;0.018;2023-05-16T06:22:18;9.60;99.90
42187;DHT22;27858;51.414;0.018;2023-05-16T06:24:44;9.70;99.90
42187;DHT22;27858;51.414;0.018;2023-05-16T06:27:11;9.80;99.90
42187;DHT22;27858;51.414;0.018;2023-05-16T06:29:38;9.80;99.90
42187;DHT22;27858;51.414;0.018;2023-05-16T06:32:05;9.90;99.90
42187;DHT22;27858;51.414;0.018;2023-05-16T06:34:32;10.00;99.90
42187;DHT22;27858;51.414;0.018;2023-05-16T06:36:59;10.10;99.90
42187;DHT22;27858;51.414;0.018;2023-05-16T06:39:26;10.20;99.90
42187;DHT22;27858;51.414;0.018;2023-05-16T06:41:53;10.30;99.90
42187;DHT22;27858;51.414;0.018;2023-05-16T06:44:22;10.40;99.90
42187;DHT22;27858;51.414;0.018;2023-05-16T06:46:49;10.50;99.90
42187;DHT22;27858;51.414;0.018;2023-05-16T06:49:16;10.50;99.90
42187;DHT22;27858;51.414;0.018;2023-05-16T06:51:43;10.60;99.90
42187;DHT22;27858;51.414;0.018;2023-05-16T06:54:10;10.70;99.90
42187;DHT22;27858;51.414;0.018;2023-05-16T06:56:36;10.70;99.90
42187;DHT22;27858;51.414;0.018;2023-05-16T06:59:06;10.90;99.90
42187;DHT22;27858;51.414;0.018;2023-05-16T07:01:32;10.90;99.90
42187;DHT22;27858;51.414;0.018;2023-05-16T07:03:59;10.90;99.90
42187;DHT22;27858;51.414;0.018;2023-05-16T07:06:26;11.00;99.90
42187;DHT22;27858;51.414;0.018;2023-05-16T07:08:53;11.10;99.90
42187;DHT22;27858;51.414;0.018;2023-05-16T07:11:20;11.20;99.90
42187;DHT22;27858;51.414;0.018;2023-05-16T07:13:46;11.20;99.90
42187;DHT22;27858;51.414;0.018;2023-05-16T07:16:15;11.30;99.90
42187;DHT22;27858;51.414;0.018;2023-05-16T07:18:42;11.40;99.90
42187;DHT22;27858;51.414;0.018;2023-05-16T07:21:09;11.50;99.90
42187;DHT22;27858;51.414;0.018;2023-05-16T07:23:37;11.60;99.90
42187;DHT22;27858;51.414;0.018;2023-05-16T07:26:04;11.60;99.90
42187;DHT22;27858;51.414;0.018;2023-05-16T07:28:36;11.70;99.90
42187;DHT22;27858;51.414;0.018;2023-05-16T07:31:04;11.70;99.90
42187;DHT22;27858;51.414;0.018;2023-05-16T07:33:33;11.70;99.90
42187;DHT22;27858;51.414;0.018;2023-05-16T07:36:00;11.70;99.90
42187;DHT22;27858;51.414;0.018;2023-05-16T07:38:42;11.80;99.90
42187;DHT22;27858;51.414;0.018;2023-05-16T07:41:09;11.90;99.90
42187;DHT22;27858;51.414;0.018;2023-05-16T07:43:35;12.00;99.90
42187;DHT22;27858;51.414;0.018;2023-05-16T07:46:03;12.10;99.90
42187;DHT22;27858;51.414;0.018;2023-05-16T07:48:30;12.20;99.90
42187;DHT22;27858;51.414;0.018;2023-05-16T07:50:57;12.30;99.90
42187;DHT22;27858;51.414;0.018;2023-05-16T07:53:24;12.30;99.90
42187;DHT22;27858;51.414;0.018;2023-05-16T07:55:51;12.30;99.90
42187;DHT22;27858;51.414;0.018;2023-05-16T07:58:18;12.30;99.90
42187;DHT22;27858;51.414;0.018;2023-05-16T08:00:45;12.50;99.90
42187;DHT22;27858;51.414;0.018;2023-05-16T08:03:12;12.50;99.90
42187;DHT22;27858;51.414;0.018;2023-05-16T08:05:39;12.60;99.90
42187;DHT22;27858;51.414;0.018;2023-05-16T08:08:06;12.60;95.70
42187;DHT22;27858;51.414;0.018;2023-05-16T08:10:33;12.60;92.10
42187;DHT22;27858;51.414;0.018;2023-05-16T08:13:00;12.70;93.30
42187;DHT22;27858;51.414;0.018;2023-05-16T08:15:27;12.70;89.60
42187;DHT22;27858;51.414;0.018;2023-05-16T08:17:56;12.90;92.00
42187;DHT22;27858;51.414;0.018;2023-05-16T08:20:24;12.90;62.80
42187;DHT22;27858;51.414;0.018;2023-05-16T08:22:51;13.00;42.30
42187;DHT22;27858;51.414;0.018;2023-05-16T08:25:18;13.10;42.10
42187;DHT22;27858;51.414;0.018;2023-05-16T08:27:45;13.20;33.40
42187;DHT22;27858;51.414;0.018;2023-05-16T08:30:12;13.20;26.90
42187;DHT22;27858;51.414;0.018;2023-05-16T08:32:40;13.30;17.20
42187;DHT22;27858;51.414;0.018;2023-05-16T08:35:07;13.40;21.90
42187;DHT22;27858;51.414;0.018;2023-05-16T08:37:34;13.50;16.20
42187;DHT22;27858;51.414;0.018;2023-05-16T08:40:00;13.50;10.10
42187;DHT22;27858;51.414;0.018;2023-05-16T08:42:27;13.50;4.80
42187;DHT22;27858;51.414;0.018;2023-05-16T08:44:55;13.60;3.50
42187;DHT22;27858;51.414;0.018;2023-05-16T08:47:23;13.60;1.00
42187;DHT22;27858;51.414;0.018;2023-05-16T08:49:54;13.70;1.00
42187;DHT22;27858;51.414;0.018;2023-05-16T08:52:26;13.80;1.00
42187;DHT22;27858;51.414;0.018;2023-05-16T08:55:01;13.90;1.00
42187;DHT22;27858;51.414;0.018;2023-05-16T08:57:37;13.90;1.00
42187;DHT22;27858;51.414;0.018;2023-05-16T09:00:06;14.00;1.00
42187;DHT22;27858;51.414;0.018;2023-05-16T09:02:39;13.90;1.00
42187;DHT22;27858;51.414;0.018;2023-05-16T09:05:08;14.00;1.00
42187;DHT22;27858;51.414;0.018;2023-05-16T09:07:36;14.10;1.00
42187;DHT22;27858;51.414;0.018;2023-05-16T09:10:05;14.30;1.00
42187;DHT22;27858;51.414;0.018;2023-05-16T09:12:33;14.30;1.00
42187;DHT22;27858;51.414;0.018;2023-05-16T09:15:02;14.20;1.00
42187;DHT22;27858;51.414;0.018;2023-05-16T09:17:36;14.30;1.00
42187;DHT22;27858;51.414;0.018;2023-05-16T09:22:48;14.20;1.00
42187;DHT22;27858;51.414;0.018;2023-05-16T09:25:16;14.30;1.00
42187;DHT22;27858;51.414;0.018;2023-05-16T09:27:56;14.60;1.00
42187;DHT22;27858;51.414;0.018;2023-05-16T09:30:29;14.40;1.00
42187;DHT22;27858;51.414;0.018;2023-05-16T09:32:57;14.50;1.00
42187;DHT22;27858;51.414;0.018;2023-05-16T09:35:25;14.50;1.00
42187;DHT22;27858;51.414;0.018;2023-05-16T09:37:55;14.70;1.00
42187;DHT22;27858;51.414;0.018;2023-05-16T09:40:23;14.90;1.00
42187;DHT22;27858;51.414;0.018;2023-05-16T09:43:03;15.10;1.00
42187;DHT22;27858;51.414;0.018;2023-05-16T09:45:34;15.30;1.00
42187;DHT22;27858;51.414;0.018;2023-05-16T09:48:07;15.20;99.90
42187;DHT22;27858;51.414;0.018;2023-05-16T09:50:35;15.10;99.90
42187;DHT22;27858;51.414;0.018;2023-05-16T09:53:02;15.40;1.00
42187;DHT22;27858;51.414;0.018;2023-05-16T09:55:30;15.60;1.00
42187;DHT22;27858;51.414;0.018;2023-05-16T09:57:57;15.30;99.90
42187;DHT22;27858;51.414;0.018;2023-05-16T10:00:31;15.20;99.90
42187;DHT22;27858;51.414;0.018;2023-05-16T10:03:00;15.20;99.90
42187;DHT22;27858;51.414;0.018;2023-05-16T10:05:31;15.30;99.90
42187;DHT22;27858;51.414;0.018;2023-05-16T10:07:58;15.60;99.90
42187;DHT22;27858;51.414;0.018;2023-05-16T10:10:26;15.70;99.90
42187;DHT22;27858;51.414;0.018;2023-05-16T10:12:57;15.40;99.90
42187;DHT22;27858;51.414;0.018;2023-05-16T10:15:27;15.70;99.90
42187;DHT22;27858;51.414;0.018;2023-05-16T10:17:55;15.90;99.90
42187;DHT22;27858;51.414;0.018;2023-05-16T10:20:25;16.00;99.90
42187;DHT22;27858;51.414;0.018;2023-05-16T10:22:54;15.80;99.90
42187;DHT22;27858;51.414;0.018;2023-05-16T10:25:24;15.70;99.90
42187;DHT22;27858;51.414;0.018;2023-05-16T10:27:52;15.40;99.90
42187;DHT22;27858;51.414;0.018;2023-05-16T10:30:20;15.30;99.90
42187;DHT22;27858;51.414;0.018;2023-05-16T10:32:49;15.60;99.90
42187;DHT22;27858;51.414;0.018;2023-05-16T10:35:18;15.90;99.90
42187;DHT22;27858;51.414;0.018;2023-05-16T10:37:47;16.10;99.90
42187;DHT22;27858;51.414;0.018;2023-05-16T10:40:15;16.30;99.90
42187;DHT22;27858;51.414;0.018;2023-05-16T10:43:00;16.30;99.90
42187;DHT22;27858;51.414;0.018;2023-05-16T10:45:27;16.20;99.90
42187;DHT22;27858;51.414;0.018;2023-05-16T10:48:01;16.30;99.90
42187;DHT22;27858;51.414;0.018;2023-05-16T10:50:43;16.10;99.90
42187;DHT22;27858;51.414;0.018;2023-05-16T10:53:21;16.00;99.90
42187;DHT22;27858;51.414;0.018;2023-05-16T11:06:31;16.00;99.90
42187;DHT22;27858;51.414;0.018;2023-05-16T11:14:52;16.20;99.90
42187;DHT22;27858;51.414;0.018;2023-05-16T11:17:14;16.30;99.90
42187;DHT22;27858;51.414;0.018;2023-05-16T11:19:47;16.20;99.90
42187;DHT22;27858;51.414;0.018;2023-05-16T11:22:33;16.40;99.90
42187;DHT22;27858;51.414;0.018;2023-05-16T11:25:07;16.80;99.90
42187;DHT22;27858;51.414;0.018;2023-05-16T11:27:46;16.70;99.90
42187;DHT22;27858;51.414;0.018;2023-05-16T11:30:15;16.80;99.90
42187;DHT22;27858;51.414;0.018;2023-05-16T11:32:44;16.60;99.90
42187;DHT22;27858;51.414;0.018;2023-05-16T11:35:13;16.60;99.90
42187;DHT22;27858;51.414;0.018;2023-05-16T11:37:41;16.80;99.90
42187;DHT22;27858;51.414;0.018;2023-05-16T11:40:10;16.80;99.90
42187;DHT22;27858;51.414;0.018;2023-05-16T11:42:45;16.90;99.90
42187;DHT22;27858;51.414;0.018;2023-05-16T11:45:17;17.00;99.90
42187;DHT22;27858;51.414;0.018;2023-05-16T11:47:46;16.80;99.90
42187;DHT22;27858;51.414;0.018;2023-05-16T11:50:18;16.80;99.90
42187;DHT22;27858;51.414;0.018;2023-05-16T11:52:48;17.10;99.90
42187;DHT22;27858;51.414;0.018;2023-05-16T11:55:24;17.20;99.90
42187;DHT22;27858;51.414;0.018;2023-05-16T11:58:08;17.50;99.90
42187;DHT22;27858;51.414;0.018;2023-05-16T12:00:35;17.40;99.90
42187;DHT22;27858;51.414;0.018;2023-05-16T12:03:03;17.30;99.90
42187;DHT22;27858;51.414;0.018;2023-05-16T12:05:32;17.10;99.90
42187;DHT22;27858;51.414;0.018;2023-05-16T12:08:01;17.20;99.90
42187;DHT22;27858;51.414;0.018;2023-05-16T12:10:30;17.00;99.90
42187;DHT22;27858;51.414;0.018;2023-05-16T12:12:57;17.30;99.90
42187;DHT22;27858;51.414;0.018;2023-05-16T12:15:24;17.40;99.90
42187;DHT22;27858;51.414;0.018;2023-05-16T12:17:52;17.50;99.90
42187;DHT22;27858;51.414;0.018;2023-05-16T12:20:19;17.50;99.90
42187;DHT22;27858;51.414;0.018;2023-05-16T12:22:46;17.80;99.90
42187;DHT22;27858;51.414;0.018;2023-05-16T12:25:29;17.90;99.90
42187;DHT22;27858;51.414;0.018;2023-05-16T12:28:02;18.10;99.90
42187;DHT22;27858;51.414;0.018;2023-05-16T12:30:31;18.40;99.90
42187;DHT22;27858;51.414;0.018;2023-05-16T12:33:03;18.30;99.90
42187;DHT22;27858;51.414;0.018;2023-05-16T12:35:34;18.10;99.90
42187;DHT22;27858;51.414;0.018;2023-05-16T12:38:04;18.40;99.90
42187;DHT22;27858;51.414;0.018;2023-05-16T12:40:31;18.80;99.90
42187;DHT22;27858;51.414;0.018;2023-05-16T12:42:59;19.00;99.90
42187;DHT22;27858;51.414;0.018;2023-05-16T12:45:26;19.10;99.90
42187;DHT22;27858;51.414;0.018;2023-05-16T12:47:53;18.80;99.90
42187;DHT22;27858;51.414;0.018;2023-05-16T12:50:20;18.20;99.90
42187;DHT22;27858;51.414;0.018;2023-05-16T12:52:53;18.10;99.90
42187;DHT22;27858;51.414;0.018;2023-05-16T12:55:21;17.70;99.90
42187;DHT22;27858;51.414;0.018;2023-05-16T12:57:49;17.80;99.90
42187;DHT22;27858;51.414;0.018;2023-05-16T13:00:18;17.80;99.90
42187;DHT22;27858;51.414;0.018;2023-05-16T13:02:47;18.00;99.90
42187;DHT22;27858;51.414;0.018;2023-05-16T13:05:14;18.50;99.90
42187;DHT22;27858;51.414;0.018;2023-05-16T13:07:42;18.90;99.90
42187;DHT22;27858;51.414;0.018;2023-05-16T13:10:10;19.20;99.90
42187;DHT22;27858;51.414;0.018;2023-05-16T13:12:38;19.30;99.90
42187;DHT22;27858;51.414;0.018;2023-05-16T13:15:06;19.40;99.90
42187;DHT22;27858;51.414;0.018;2023-05-16T13:17:34;19.70;99.90
42187;DHT22;27858;51.414;0.018;2023-05-16T13:20:02;19.70;99.90
42187;DHT22;27858;51.414;0.018;2023-05-16T13:22:35;19.40;99.90
42187;DHT22;27858;51.414;0.018;2023-05-16T13:25:03;19.80;99.90
42187;DHT22;27858;51.414;0.018;2023-05-16T13:27:30;20.40;99.90
42187;DHT22;27858;51.414;0.018;2023-05-16T13:29:57;20.50;99.90
42187;DHT22;27858;51.414;0.018;2023-05-16T13:32:24;20.70;99.90
42187;DHT22;27858;51.414;0.018;2023-05-16T13:34:51;20.80;99.90
42187;DHT22;27858;51.414;0.018;2023-05-16T13:37:18;20.80;99.90
42187;DHT22;27858;51.414;0.018;2023-05-16T13:39:45;21.00;99.90
42187;DHT22;27858;51.414;0.018;2023-05-16T13:42:12;21.60;99.90
42187;DHT22;27858;51.414;0.018;2023-05-16T13:44:39;21.10;99.90
42187;DHT22;27858;51.414;0.018;2023-05-16T13:47:05;20.60;99.90
42187;DHT22;27858;51.414;0.018;2023-05-16T13:49:32;21.30;99.90
42187;DHT22;27858;51.414;0.018;2023-05-16T13:51:59;21.90;99.90
42187;DHT22;27858;51.414;0.018;2023-05-16T13:54:27;22.10;99.90
42187;DHT22;27858;51.414;0.018;2023-05-16T13:56:53;21.70;99.90
42187;DHT22;27858;51.414;0.018;2023-05-16T13:59:20;21.50;99.90
42187;DHT22;27858;51.414;0.018;2023-05-16T14:02:07;22.10;99.90
42187;DHT22;27858;51.414;0.018;2023-05-16T14:04:34;21.90;99.90
42187;DHT22;27858;51.414;0.018;2023-05-16T14:07:01;22.60;99.90
42187;DHT22;27858;51.414;0.018;2023-05-16T14:09:28;23.00;99.90
42187;DHT22;27858;51.414;0.018;2023-05-16T14:11:55;22.70;99.90
42187;DHT22;27858;51.414;0.018;2023-05-16T14:14:22;23.30;99.90
42187;DHT22;27858;51.414;0.018;2023-05-16T14:16:48;21.50;99.90
42187;DHT22;27858;51.414;0.018;2023-05-16T14:19:15;21.60;99.90
42187;DHT22;27858;51.414;0.018;2023-05-16T14:21:45;22.00;99.90
42187;DHT22;27858;51.414;0.018;2023-05-16T14:24:11;22.40;99.90
42187;DHT22;27858;51.414;0.018;2023-05-16T14:26:38;22.80;99.90
42187;DHT22;27858;51.414;0.018;2023-05-16T14:29:05;23.20;99.90
42187;DHT22;27858;51.414;0.018;2023-05-16T14:31:32;23.10;99.90
42187;DHT22;27858;51.414;0.018;2023-05-16T14:33:59;23.40;99.90
42187;DHT22;27858;51.414;0.018;2023-05-16T14:36:26;23.10;99.90
42187;DHT22;27858;51.414;0.018;2023-05-16T14:38:52;23.40;99.90
42187;DHT22;27858;51.414;0.018;2023-05-16T14:41:19;23.40;99.90
42187;DHT22;27858;51.414;0.018;2023-05-16T14:43:46;23.20;99.90
42187;DHT22;27858;51.414;0.018;2023-05-16T14:46:13;23.40;99.90
42187;DHT22;27858;51.414;0.018;2023-05-16T14:48:40;24.50;99.90
42187;DHT22;27858;51.414;0.018;2023-05-16T14:51:07;24.50;99.90
42187;DHT22;27858;51.414;0.018;2023-05-16T14:53:34;24.30;99.90
42187;DHT22;27858;51.414;0.018;2023-05-16T14:56:01;23.80;99.90
42187;DHT22;27858;51.414;0.018;2023-05-16T14:58:29;23.40;99.90
42187;DHT22;27858;51.414;0.018;2023-05-16T15:00:56;23.30;99.90
42187;DHT22;27858;51.414;0.018;2023-05-16T15:03:23;23.00;99.90
42187;DHT22;27858;51.414;0.018;2023-05-16T15:05:50;22.70;99.90
42187;DHT22;27858;51.414;0.018;2023-05-16T15:08:18;22.70;99.90
42187;DHT22;27858;51.414;0.018;2023-05-16T15:10:45;23.20;99.90
42187;DHT22;27858;51.414;0.018;2023-05-16T15:13:11;22.80;99.90
42187;DHT22;27858;51.414;0.018;2023-05-16T15:15:38;22.40;99.90
42187;DHT22;27858;51.414;0.018;2023-05-16T15:18:05;21.80;99.90
42187;DHT22;27858;51.414;0.018;2023-05-16T15:20:32;21.60;99.90
42187;DHT22;27858;51.414;0.018;2023-05-16T15:22:59;21.50;99.90
42187;DHT22;27858;51.414;0.018;2023-05-16T15:25:26;21.10;99.90
42187;DHT22;27858;51.414;0.018;2023-05-16T15:27:54;20.90;99.90
42187;DHT22;27858;51.414;0.018;2023-05-16T15:30:20;20.60;99.90
42187;DHT22;27858;51.414;0.018;2023-05-16T15:32:48;20.60;99.90
42187;DHT22;27858;51.414;0.018;2023-05-16T15:35:14;20.60;99.90
42187;DHT22;27858;51.414;0.018;2023-05-16T15:37:41;20.70;99.90
42187;DHT22;27858;51.414;0.018;2023-05-16T15:40:09;20.60;99.90
42187;DHT22;27858;51.414;0.018;2023-05-16T15:42:37;20.40;99.90
42187;DHT22;27858;51.414;0.018;2023-05-16T15:45:04;20.20;99.90
42187;DHT22;27858;51.414;0.018;2023-05-16T15:47:31;20.10;99.90
42187;DHT22;27858;51.414;0.018;2023-05-16T15:49:58;19.90;99.90
42187;DHT22;27858;51.414;0.018;2023-05-16T15:52:25;19.80;99.90
42187;DHT22;27858;51.414;0.018;2023-05-16T15:54:52;19.80;99.90
42187;DHT22;27858;51.414;0.018;2023-05-16T15:57:18;19.90;99.90
42187;DHT22;27858;51.414;0.018;2023-05-16T15:59:45;19.70;99.90
42187;DHT22;27858;51.414;0.018;2023-05-16T16:02:12;19.80;99.90
42187;DHT22;27858;51.414;0.018;2023-05-16T16:04:39;19.40;99.90
42187;DHT22;27858;51.414;0.018;2023-05-16T16:07:06;19.40;99.90
42187;DHT22;27858;51.414;0.018;2023-05-16T16:09:33;19.40;99.90
42187;DHT22;27858;51.414;0.018;2023-05-16T16:11:59;19.30;99.90
42187;DHT22;27858;51.414;0.018;2023-05-16T16:14:26;19.30;99.90
42187;DHT22;27858;51.414;0.018;2023-05-16T16:16:53;19.20;99.90
42187;DHT22;27858;51.414;0.018;2023-05-16T16:19:20;19.00;99.90
42187;DHT22;27858;51.414;0.018;2023-05-16T16:21:47;19.00;99.90
42187;DHT22;27858;51.414;0.018;2023-05-16T16:24:14;18.90;99.90
42187;DHT22;27858;51.414;0.018;2023-05-16T16:26:41;18.80;99.90
42187;DHT22;27858;51.414;0.018;2023-05-16T16:29:09;18.80;99.90
42187;DHT22;27858;51.414;0.018;2023-05-16T16:31:35;18.70;99.90
42187;DHT22;27858;51.414;0.018;2023-05-16T16:34:03;18.80;99.90
42187;DHT22;27858;51.414;0.018;2023-05-16T16:36:38;18.80;99.90
42187;DHT22;27858;51.414;0.018;2023-05-16T16:39:09;18.90;99.90
42187;DHT22;27858;51.414;0.018;2023-05-16T16:41:36;19.10;99.90
42187;DHT22;27858;51.414;0.018;2023-05-16T16:44:03;19.10;99.90
42187;DHT22;27858;51.414;0.018;2023-05-16T16:46:30;19.10;99.90
42187;DHT22;27858;51.414;0.018;2023-05-16T16:48:56;19.10;99.90
42187;DHT22;27858;51.414;0.018;2023-05-16T16:51:23;19.10;99.90
42187;DHT22;27858;51.414;0.018;2023-05-16T16:53:50;19.10;99.90
42187;DHT22;27858;51.414;0.018;2023-05-16T16:56:17;19.00;99.90
42187;DHT22;27858;51.414;0.018;2023-05-16T16:58:43;18.70;99.90
42187;DHT22;27858;51.414;0.018;2023-05-16T17:01:10;18.70;99.90
42187;DHT22;27858;51.414;0.018;2023-05-16T17:03:39;18.70;99.90
42187;DHT22;27858;51.414;0.018;2023-05-16T17:06:06;18.60;99.90
42187;DHT22;27858;51.414;0.018;2023-05-16T17:08:33;18.60;99.90
42187;DHT22;27858;51.414;0.018;2023-05-16T17:11:00;18.70;99.90
42187;DHT22;27858;51.414;0.018;2023-05-16T17:13:31;18.70;99.90
42187;DHT22;27858;51.414;0.018;2023-05-16T17:16:00;18.90;99.90
42187;DHT22;27858;51.414;0.018;2023-05-16T17:18:27;19.10;99.90
42187;DHT22;27858;51.414;0.018;2023-05-16T17:20:56;19.20;99.90
42187;DHT22;27858;51.414;0.018;2023-05-16T17:23:23;19.20;99.90
42187;DHT22;27858;51.414;0.018;2023-05-16T17:25:50;19.20;99.90
42187;DHT22;27858;51.414;0.018;2023-05-16T17:28:17;19.80;99.90
42187;DHT22;27858;51.414;0.018;2023-05-16T17:30:44;19.90;99.90
42187;DHT22;27858;51.414;0.018;2023-05-16T17:33:11;20.50;99.90
42187;DHT22;27858;51.414;0.018;2023-05-16T17:35:38;20.60;99.90
42187;DHT22;27858;51.414;0.018;2023-05-16T17:38:06;20.20;99.90
42187;DHT22;27858;51.414;0.018;2023-05-16T17:40:35;20.50;99.90
42187;DHT22;27858;51.414;0.018;2023-05-16T17:43:02;20.80;99.90
42187;DHT22;27858;51.414;0.018;2023-05-16T17:45:29;20.40;99.90
42187;DHT22;27858;51.414;0.018;2023-05-16T17:47:58;20.50;99.90
42187;DHT22;27858;51.414;0.018;2023-05-16T17:50:28;20.20;99.90
42187;DHT22;27858;51.414;0.018;2023-05-16T17:52:55;20.00;99.90
42187;DHT22;27858;51.414;0.018;2023-05-16T17:55:22;19.80;99.90
42187;DHT22;27858;51.414;0.018;2023-05-16T17:57:50;19.70;99.90
42187;DHT22;27858;51.414;0.018;2023-05-16T18:00:17;19.70;99.90
42187;DHT22;27858;51.414;0.018;2023-05-16T18:02:44;19.60;99.90
42187;DHT22;27858;51.414;0.018;2023-05-16T18:05:11;19.40;99.90
42187;DHT22;27858;51.414;0.018;2023-05-16T18:07:39;19.30;99.90
42187;DHT22;27858;51.414;0.018;2023-05-16T18:10:07;19.20;99.90
42187;DHT22;27858;51.414;0.018;2023-05-16T18:12:34;19.10;99.90
42187;DHT22;27858;51.414;0.018;2023-05-16T18:15:07;19.10;99.90
42187;DHT22;27858;51.414;0.018;2023-05-16T18:17:34;18.90;99.90
42187;DHT22;27858;51.414;0.018;2023-05-16T18:20:02;18.80;99.90
42187;DHT22;27858;51.414;0.018;2023-05-16T18:22:38;18.60;99.90
42187;DHT22;27858;51.414;0.018;2023-05-16T18:25:06;18.50;99.90
42187;DHT22;27858;51.414;0.018;2023-05-16T18:27:35;18.40;99.90
42187;DHT22;27858;51.414;0.018;2023-05-16T18:30:03;18.40;99.90
42187;DHT22;27858;51.414;0.018;2023-05-16T18:32:31;18.40;99.90
42187;DHT22;27858;51.414;0.018;2023-05-16T18:34:58;18.20;99.90
42187;DHT22;27858;51.414;0.018;2023-05-16T18:37:24;18.20;99.90
42187;DHT22;27858;51.414;0.018;2023-05-16T18:39:51;18.10;99.90
42187;DHT22;27858;51.414;0.018;2023-05-16T18:42:18;18.00;99.90
42187;DHT22;27858;51.414;0.018;2023-05-16T18:44:45;18.00;99.90
42187;DHT22;27858;51.414;0.018;2023-05-16T18:47:12;18.00;99.90
42187;DHT22;27858;51.414;0.018;2023-05-16T18:49:41;17.90;99.90
42187;DHT22;27858;51.414;0.018;2023-05-16T18:52:09;17.80;99.90
42187;DHT22;27858;51.414;0.018;2023-05-16T18:54:37;17.60;99.90
42187;DHT22;27858;51.414;0.018;2023-05-16T18:57:05;17.50;99.90
42187;DHT22;27858;51.414;0.018;2023-05-16T18:59:32;17.50;99.90
42187;DHT22;27858;51.414;0.018;2023-05-16T19:01:59;17.30;99.90
42187;DHT22;27858;51.414;0.018;2023-05-16T19:04:26;17.30;99.90
42187;DHT22;27858;51.414;0.018;2023-05-16T19:06:53;17.20;99.90
42187;DHT22;27858;51.414;0.018;2023-05-16T19:09:22;17.10;99.90
42187;DHT22;27858;51.414;0.018;2023-05-16T19:11:49;17.10;99.90
42187;DHT22;27858;51.414;0.018;2023-05-16T19:14:15;17.00;99.90
42187;DHT22;27858;51.414;0.018;2023-05-16T19:16:42;16.90;99.90
42187;DHT22;27858;51.414;0.018;2023-05-16T19:19:09;16.90;99.90
42187;DHT22;27858;51.414;0.018;2023-05-16T19:21:36;16.80;99.90
42187;DHT22;27858;51.414;0.018;2023-05-16T19:24:04;16.80;99.90
42187;DHT22;27858;51.414;0.018;2023-05-16T19:26:31;16.70;99.90
42187;DHT22;27858;51.414;0.018;2023-05-16T19:28:58;16.80;99.90
42187;DHT22;27858;51.414;0.018;2023-05-16T19:31:28;16.70;99.90
42187;DHT22;27858;51.414;0.018;2023-05-16T19:33:55;16.60;99.90
42187;DHT22;27858;51.414;0.018;2023-05-16T19:36:22;16.60;99.90
42187;DHT22;27858;51.414;0.018;2023-05-16T19:38:50;16.60;99.90
42187;DHT22;27858;51.414;0.018;2023-05-16T19:41:16;16.50;99.90
42187;DHT22;27858;51.414;0.018;2023-05-16T19:43:43;16.40;99.90
42187;DHT22;27858;51.414;0.018;2023-05-16T19:46:10;16.40;99.90
42187;DHT22;27858;51.414;0.018;2023-05-16T19:48:37;16.30;99.90
42187;DHT22;27858;51.414;0.018;2023-05-16T19:51:04;16.30;99.90
42187;DHT22;27858;51.414;0.018;2023-05-16T19:53:31;16.30;99.90
42187;DHT22;27858;51.414;0.018;2023-05-16T19:55:58;16.20;99.90
42187;DHT22;27858;51.414;0.018;2023-05-16T19:58:25;16.10;99.90
42187;DHT22;27858;51.414;0.018;2023-05-16T20:00:52;15.90;99.90